• Join FlightAware (Why Join?)
  • Login
  • US Flag 
10:32PM EDT


 

Airport Tracker/Info


-or-


 

Live Flight TrackerFlight Track Log ✈ N934DL ✈ 16-Apr-2013 ✈ KBDL - KDTW

Flight Track Log - Related Links

Times and Time Zones

All times are in EDT time to prevent confusion due to time zone crossing. See the N934DL flight status page for this flight to view local times or setup timezone preferences in your user account.

Time Position Orientation Groundspeed Altitude Reporting Facility
EDT Latitude Longitude Course Direction KTS MPH feet Rate Location/Type
07:35AM 41.9292 -72.7053 340° North 150 173 1,400  Level Boston Center
07:37AM 41.9517 -72.8114 286° West 228 262 4,700 2,460 Climbing Boston Center
07:38AM 42.1968 -72.8701 334° Northwest  Level FlightAware Approximate
07:38AM 42.0267 -72.8397 344° North 235 270 7,900  Level Boston Center
07:39AM 42.2775 -72.9304 340° North  Level FlightAware Approximate
07:39AM 42.1161 -72.8739 344° North 267 307 10,600  Level Boston Center
07:40AM 42.3657 -72.9911 340° North  Level FlightAware Approximate
07:40AM 42.1994 -72.9108 342° North 322 371 12,400  Level Boston Center
07:41AM 42.4589 -73.0377 340° North  Level FlightAware Approximate
07:41AM 42.3014 -72.9539 343° North 346 398 15,700  Level Boston Center
07:42AM 42.3928 -73.0081 336° Northwest 346 398 17,900 1,740 Climbing Boston Center
07:43AM 42.4736 -73.0622 334° Northwest 353 406 19,200 1,380 Climbing Boston Center
07:44AM 42.5147 -73.1864 294° West 334 384 20,700 1,260 Climbing Boston Center
07:45AM 42.5469 -73.3333 287° West 365 420 21,800 1,440 Climbing Boston Center
07:46AM 42.5811 -73.4889 287° West 413 475 23,600 1,740 Climbing Boston Center
07:47AM 42.6169 -73.6419 288° West 418 481 25,400 1,800 Climbing Boston Center
07:48AM 42.6486 -73.7922 286° West 418 481 27,300 1,980 Climbing Boston Center
07:49AM 42.6844 -73.9342 289° West 418 481 29,400 1,800 Climbing Boston Center
07:50AM 42.7158 -74.0761 287° West 408 470 31,000 1,320 Climbing Boston Center
07:51AM 42.7450 -74.2183 286° West 402 463 32,000 420 Climbing Boston Center
07:52AM 42.7781 -74.3608 288° West 397 457 32,000  Level Boston Center
07:53AM 42.8128 -74.5289 286° West 397 457 32,000  Level Boston Center
07:54AM 42.8433 -74.6714 286° West 397 457 32,000  Level Boston Center
07:55AM 42.8717 -74.8142 285° West 397 457 32,000  Level Boston Center
07:56AM 42.8811 -74.9619 275° West 397 457 32,000  Level Boston Center
07:57AM 42.8858 -75.1122 273° West 397 457 32,000  Level Boston Center
07:58AM 42.8908 -75.2572 273° West 397 457 32,000  Level Boston Center
07:59AM 42.8953 -75.4047 272° West 392 451 32,000  Level Boston Center
08:00AM 42.8978 -75.5522 271° West 392 451 32,000  Level Boston Center
08:01AM 42.9019 -75.7000 272° West 392 451 32,000  Level Boston Center
08:02AM 42.9050 -75.8786 271° West 392 451 32,000  Level Boston Center
08:03AM 42.9089 -76.0236 272° West 386 444 32,000  Level Boston Center
08:04AM 42.9106 -76.1683 271° West 386 444 32,000  Level Boston Center
08:06AM 42.9142 -76.4636 271° West 386 444 32,000  Level Cleveland Center
08:07AM 42.9169 -76.6053 272° West 381 438 32,000  Level Cleveland Center
08:08AM 42.9183 -76.7669 271° West 381 438 32,000  Level Cleveland Center
08:09AM 42.9208 -76.9114 271° West 381 438 32,000  Level Cleveland Center
08:10AM 42.9233 -77.0558 271° West 381 438 32,000  Level Cleveland Center
08:11AM 42.9256 -77.2033 271° West 386 444 32,000  Level Cleveland Center
08:12AM 42.9278 -77.3506 271° West 386 444 32,000  Level Cleveland Center
08:13AM 42.9297 -77.4953 271° West 386 444 32,000  Level Cleveland Center
08:14AM 42.9292 -77.6397 270° West 386 444 32,000  Level Cleveland Center
08:15AM 42.9325 -77.7731 272° West 386 444 32,000  Level Cleveland Center
08:16AM 42.9339 -77.9147 271° West 386 444 32,000  Level Cleveland Center
08:17AM 42.9328 -78.0594 269° West 386 444 32,000  Level Cleveland Center
08:18AM 42.9317 -78.2042 269° West 386 444 32,000  Level Cleveland Center
08:19AM 42.9328 -78.3514 271° West 386 444 32,000  Level Cleveland Center
08:20AM 42.9333 -78.4933 270° West 386 444 32,000  Level Cleveland Center
08:21AM 42.9317 -78.6381 269° West 386 444 32,000  Level Cleveland Center
08:22AM 42.9131 -78.7831 260° West 386 444 32,000  Level Cleveland Center
08:23AM 42.8922 -78.9283 259° West 391 450 32,000  Level Cleveland Center
08:24AM 42.8714 -79.0706 259° West 391 450 32,000  Level Cleveland Center
08:25AM 42.8481 -79.2097 257° West 391 450 32,000  Level Cleveland Center
08:26AM 42.8289 -79.3517 260° West 391 450 32,000  Level Cleveland Center
08:27AM 42.8072 -79.4964 259° West 391 450 32,000  Level Cleveland Center
08:28AM 42.7856 -79.6411 259° West 391 450 32,000  Level Cleveland Center
08:29AM 42.7639 -79.7800 258° West 391 450 32,000 -300 Level Cleveland Center
08:30AM 42.7500 -79.9272 263° West 391 450 31,500 -840 Descending Cleveland Center
08:31AM 42.7406 -80.0914 266° West 391 450 30,400 -1,020 Descending Cleveland Center
08:32AM 42.7347 -80.2242 267° West 397 457 29,500 -1,140 Descending Cleveland Center
08:33AM 42.7289 -80.3742 267° West 403 464 28,200 -780 Descending Cleveland Center
08:34AM 42.7228 -80.5239 267° West 403 464 28,000 -120 Descending Cleveland Center
08:35AM 42.7144 -80.6764 266° West 403 464 28,000  Level Cleveland Center
08:36AM 42.7081 -80.8233 267° West 401 461 28,000 -840 Level Cleveland Center
08:37AM 42.6972 -80.9758 265° West 401 461 26,400 -1,260 Descending Cleveland Center
08:38AM 42.6819 -81.1256 262° West 408 470 25,500 -1,140 Descending Cleveland Center
08:39AM 42.6625 -81.2722 260° West 402 463 24,200 -780 Descending Cleveland Center
08:40AM 42.6467 -81.4300 262° West 402 463 24,000 -300 Descending Cleveland Center
08:41AM 42.6289 -81.5792 261° West 397 457 23,700 -1,140 Descending Cleveland Center
08:42AM 42.6108 -81.7228 260° West 397 457 21,800 -1,560 Descending Cleveland Center
08:43AM 42.5928 -81.8608 260° West 392 451 20,600 -1,260 Descending Cleveland Center
08:44AM 42.5744 -81.9986 260° West 386 444 19,300 -4,320 Descending Cleveland Center
08:45AM 42.5603 -82.1364 262° West 381 438 12,000 -2,100 Descending Cleveland Center
08:46AM 42.5417 -82.2656 259° West 368 423 15,200 1,500 Climbing Cleveland Center
08:47AM 42.5389 -82.3161 266° West 341 392 14,100 -2,340 Descending Cleveland Center
08:47AM 42.5253 -82.3892 256° West 349 402 12,900 -1,260 Descending Cleveland Center
08:48AM 42.5128 -82.5069 262° West 337 388 12,100 -900 Descending Cleveland Center
08:49AM 42.4817 -82.6214 250° West 326 375 11,200 -1,020 Descending Cleveland Center
08:50AM 42.4467 -82.7217 245° Southwest 314 361 10,100 -960 Descending Cleveland Center
08:51AM 42.4094 -82.8047 239° Southwest 285 328 9,300 -1,200 Descending Cleveland Center
08:52AM 42.3914 -82.8828 253° West 234 269 7,700 -1,200 Descending Cleveland Center
08:53AM 42.4253 -82.9517 304° West 197 227 7,000 -360 Descending Cleveland Center
08:54AM 42.4831 -82.9847 337° Northwest 179 206 7,000 -180 Level Cleveland Center
08:55AM 42.4967 -83.0303 292° West 167 192 6,700 -600 Descending Cleveland Center
08:56AM 42.5081 -83.0872 285° West 154 177 6,000 -420 Descending Cleveland Center
08:57AM 42.4908 -83.1319 242° Southwest 149 171 6,000  Level FAA TRACON SMA TRACON (SMA)
08:57AM 42.4800 -83.1383 204° Southwest 153 176 6,000 120 Level FAA TRACON SMA TRACON (SMA)
08:58AM 42.4686 -83.1483 213° Southwest 151 174 6,100  Climbing FAA TRACON SMA TRACON (SMA)
08:58AM 42.4539 -83.1608 212° Southwest 153 176 6,000 -480 Descending FAA TRACON SMA TRACON (SMA)
08:58AM 42.4419 -83.1692 207° Southwest 156 180 5,800 -780 Descending FAA TRACON SMA TRACON (SMA)
08:59AM 42.4292 -83.1794 211° Southwest 154 177 5,500 -900 Descending FAA TRACON SMA TRACON (SMA)
08:59AM 42.4169 -83.1878 207° Southwest 159 183 5,200 -1,080 Descending FAA TRACON SMA TRACON (SMA)
08:59AM 42.4025 -83.1986 209° Southwest 157 181 4,800 -960 Descending FAA TRACON SMA TRACON (SMA)
09:00AM 42.3911 -83.2072 209° Southwest 155 178 4,600 -780 Descending FAA TRACON SMA TRACON (SMA)
09:00AM 42.3800 -83.2156 209° Southwest 155 178 4,300 -900 Descending FAA TRACON SMA TRACON (SMA)
09:00AM 42.3667 -83.2267 212° Southwest 156 180 4,000 -900 Descending FAA TRACON SMA TRACON (SMA)
09:01AM 42.3542 -83.2347 205° Southwest 154 177 3,700 -900 Descending FAA TRACON SMA TRACON (SMA)
09:01AM 42.3408 -83.2444 208° Southwest 163 188 3,400 -900 Descending FAA TRACON SMA TRACON (SMA)
09:01AM 42.3256 -83.2561 209° Southwest 173 199 3,100 -900 Descending FAA TRACON SMA TRACON (SMA)